sensor_id;sensor_type;location;lat;lon;timestamp;P1;durP1;ratioP1;P2;durP2;ratioP2
23410;SDS011;11878;51.774;7.220;2022-09-21T00:00:09;2.73;;;1.70;;
23410;SDS011;11878;51.774;7.220;2022-09-21T00:03:11;5.67;;;1.83;;
23410;SDS011;11878;51.774;7.220;2022-09-21T00:06:15;9.47;;;2.20;;
23410;SDS011;11878;51.774;7.220;2022-09-21T00:09:19;3.63;;;1.50;;
23410;SDS011;11878;51.774;7.220;2022-09-21T00:12:20;4.47;;;1.43;;
23410;SDS011;11878;51.774;7.220;2022-09-21T00:15:22;3.87;;;1.70;;
23410;SDS011;11878;51.774;7.220;2022-09-21T00:18:25;4.03;;;1.83;;
23410;SDS011;11878;51.774;7.220;2022-09-21T00:21:27;2.30;;;1.60;;
23410;SDS011;11878;51.774;7.220;2022-09-21T00:24:28;6.37;;;1.73;;
23410;SDS011;11878;51.774;7.220;2022-09-21T00:27:30;6.67;;;1.77;;
23410;SDS011;11878;51.774;7.220;2022-09-21T00:30:32;4.00;;;1.67;;
23410;SDS011;11878;51.774;7.220;2022-09-21T00:33:34;2.67;;;1.47;;
23410;SDS011;11878;51.774;7.220;2022-09-21T00:36:35;1.57;;;1.10;;
23410;SDS011;11878;51.774;7.220;2022-09-21T00:39:37;4.93;;;1.40;;
23410;SDS011;11878;51.774;7.220;2022-09-21T00:42:39;2.97;;;1.60;;
23410;SDS011;11878;51.774;7.220;2022-09-21T00:45:41;3.80;;;1.23;;
23410;SDS011;11878;51.774;7.220;2022-09-21T00:48:44;4.43;;;1.20;;
23410;SDS011;11878;51.774;7.220;2022-09-21T00:51:47;2.60;;;1.33;;
23410;SDS011;11878;51.774;7.220;2022-09-21T00:54:51;3.67;;;1.20;;
23410;SDS011;11878;51.774;7.220;2022-09-21T00:57:58;2.87;;;1.13;;
23410;SDS011;11878;51.774;7.220;2022-09-21T01:01:06;2.07;;;1.30;;
23410;SDS011;11878;51.774;7.220;2022-09-21T01:04:08;4.87;;;1.30;;
23410;SDS011;11878;51.774;7.220;2022-09-21T01:07:16;10.07;;;1.70;;
23410;SDS011;11878;51.774;7.220;2022-09-21T01:10:21;2.83;;;1.00;;
23410;SDS011;11878;51.774;7.220;2022-09-21T01:13:39;1.80;;;0.97;;
23410;SDS011;11878;51.774;7.220;2022-09-21T01:17:04;3.53;;;1.23;;
23410;SDS011;11878;51.774;7.220;2022-09-21T01:30:34;5.20;;;1.23;;
23410;SDS011;11878;51.774;7.220;2022-09-21T01:33:39;4.73;;;1.50;;
23410;SDS011;11878;51.774;7.220;2022-09-21T01:36:45;2.90;;;1.00;;
23410;SDS011;11878;51.774;7.220;2022-09-21T01:39:52;4.27;;;1.13;;
23410;SDS011;11878;51.774;7.220;2022-09-21T01:42:57;2.83;;;1.17;;
23410;SDS011;11878;51.774;7.220;2022-09-21T01:46:01;4.93;;;1.30;;
23410;SDS011;11878;51.774;7.220;2022-09-21T01:49:10;7.60;;;1.20;;
23410;SDS011;11878;51.774;7.220;2022-09-21T01:52:36;1.40;;;0.87;;
23410;SDS011;11878;51.774;7.220;2022-09-21T01:55:43;1.90;;;1.07;;
23410;SDS011;11878;51.774;7.220;2022-09-21T02:01:58;5.37;;;1.30;;
23410;SDS011;11878;51.774;7.220;2022-09-21T02:05:05;1.43;;;1.10;;
23410;SDS011;11878;51.774;7.220;2022-09-21T02:08:07;3.50;;;1.10;;
23410;SDS011;11878;51.774;7.220;2022-09-21T02:11:10;4.50;;;1.10;;
23410;SDS011;11878;51.774;7.220;2022-09-21T02:14:16;1.43;;;0.90;;
23410;SDS011;11878;51.774;7.220;2022-09-21T02:20:43;2.00;;;1.00;;
23410;SDS011;11878;51.774;7.220;2022-09-21T02:23:56;1.33;;;1.00;;
23410;SDS011;11878;51.774;7.220;2022-09-21T02:30:06;5.00;;;1.57;;
23410;SDS011;11878;51.774;7.220;2022-09-21T02:33:18;1.73;;;0.97;;
23410;SDS011;11878;51.774;7.220;2022-09-21T02:36:31;2.53;;;1.20;;
23410;SDS011;11878;51.774;7.220;2022-09-21T02:42:59;9.50;;;4.40;;
23410;SDS011;11878;51.774;7.220;2022-09-21T02:46:10;13.53;;;5.40;;
23410;SDS011;11878;51.774;7.220;2022-09-21T02:49:17;18.97;;;5.37;;
23410;SDS011;11878;51.774;7.220;2022-09-21T02:52:22;8.80;;;3.47;;
23410;SDS011;11878;51.774;7.220;2022-09-21T02:55:25;5.67;;;2.00;;
23410;SDS011;11878;51.774;7.220;2022-09-21T02:58:27;5.93;;;2.23;;
23410;SDS011;11878;51.774;7.220;2022-09-21T03:01:31;29.90;;;3.93;;
23410;SDS011;11878;51.774;7.220;2022-09-21T03:04:34;19.77;;;3.10;;
23410;SDS011;11878;51.774;7.220;2022-09-21T03:07:37;12.47;;;2.73;;
23410;SDS011;11878;51.774;7.220;2022-09-21T03:10:39;25.33;;;3.73;;
23410;SDS011;11878;51.774;7.220;2022-09-21T03:13:41;17.10;;;3.80;;
23410;SDS011;11878;51.774;7.220;2022-09-21T03:16:43;12.73;;;2.90;;
23410;SDS011;11878;51.774;7.220;2022-09-21T03:19:45;16.03;;;3.53;;
23410;SDS011;11878;51.774;7.220;2022-09-21T03:22:46;4.03;;;2.23;;
23410;SDS011;11878;51.774;7.220;2022-09-21T03:25:48;16.10;;;2.93;;
23410;SDS011;11878;51.774;7.220;2022-09-21T03:28:52;13.30;;;2.87;;
23410;SDS011;11878;51.774;7.220;2022-09-21T03:31:54;10.40;;;2.73;;
23410;SDS011;11878;51.774;7.220;2022-09-21T03:34:56;4.20;;;2.00;;
23410;SDS011;11878;51.774;7.220;2022-09-21T03:37:58;3.77;;;1.73;;
23410;SDS011;11878;51.774;7.220;2022-09-21T03:41:00;5.10;;;2.10;;
23410;SDS011;11878;51.774;7.220;2022-09-21T03:44:02;3.50;;;2.13;;
23410;SDS011;11878;51.774;7.220;2022-09-21T03:47:04;3.67;;;2.07;;
23410;SDS011;11878;51.774;7.220;2022-09-21T03:50:07;4.57;;;2.10;;
23410;SDS011;11878;51.774;7.220;2022-09-21T03:53:10;2.60;;;1.43;;
23410;SDS011;11878;51.774;7.220;2022-09-21T03:56:12;3.80;;;2.07;;
23410;SDS011;11878;51.774;7.220;2022-09-21T03:59:14;11.23;;;2.13;;
23410;SDS011;11878;51.774;7.220;2022-09-21T04:02:16;2.40;;;1.80;;
23410;SDS011;11878;51.774;7.220;2022-09-21T04:05:17;2.67;;;1.67;;
23410;SDS011;11878;51.774;7.220;2022-09-21T04:08:19;3.20;;;2.23;;
23410;SDS011;11878;51.774;7.220;2022-09-21T04:11:21;3.47;;;2.23;;
23410;SDS011;11878;51.774;7.220;2022-09-21T04:14:23;6.50;;;1.97;;
23410;SDS011;11878;51.774;7.220;2022-09-21T04:17:25;3.53;;;2.03;;
23410;SDS011;11878;51.774;7.220;2022-09-21T04:20:26;5.50;;;2.40;;
23410;SDS011;11878;51.774;7.220;2022-09-21T04:23:28;3.30;;;1.60;;
23410;SDS011;11878;51.774;7.220;2022-09-21T04:26:30;3.37;;;1.90;;
23410;SDS011;11878;51.774;7.220;2022-09-21T04:29:33;3.57;;;2.10;;
23410;SDS011;11878;51.774;7.220;2022-09-21T04:32:35;2.77;;;1.50;;
23410;SDS011;11878;51.774;7.220;2022-09-21T04:35:37;4.07;;;2.00;;
23410;SDS011;11878;51.774;7.220;2022-09-21T04:38:39;2.30;;;1.50;;
23410;SDS011;11878;51.774;7.220;2022-09-21T04:41:40;2.27;;;1.60;;
23410;SDS011;11878;51.774;7.220;2022-09-21T04:44:42;2.50;;;1.80;;
23410;SDS011;11878;51.774;7.220;2022-09-21T04:47:44;10.00;;;2.57;;
23410;SDS011;11878;51.774;7.220;2022-09-21T04:50:48;3.53;;;2.00;;
23410;SDS011;11878;51.774;7.220;2022-09-21T04:53:51;4.90;;;2.90;;
23410;SDS011;11878;51.774;7.220;2022-09-21T04:56:52;5.43;;;2.07;;
23410;SDS011;11878;51.774;7.220;2022-09-21T04:59:54;5.33;;;2.20;;
23410;SDS011;11878;51.774;7.220;2022-09-21T05:02:56;8.13;;;2.63;;
23410;SDS011;11878;51.774;7.220;2022-09-21T05:05:58;4.33;;;2.30;;
23410;SDS011;11878;51.774;7.220;2022-09-21T05:09:00;6.10;;;2.40;;
23410;SDS011;11878;51.774;7.220;2022-09-21T05:12:20;7.80;;;3.30;;
23410;SDS011;11878;51.774;7.220;2022-09-21T05:15:22;6.10;;;3.07;;
23410;SDS011;11878;51.774;7.220;2022-09-21T05:18:24;12.30;;;3.67;;
23410;SDS011;11878;51.774;7.220;2022-09-21T05:21:26;14.73;;;3.23;;
23410;SDS011;11878;51.774;7.220;2022-09-21T05:24:28;17.77;;;4.60;;
23410;SDS011;11878;51.774;7.220;2022-09-21T05:27:29;8.97;;;3.23;;
23410;SDS011;11878;51.774;7.220;2022-09-21T05:30:31;8.37;;;3.40;;
23410;SDS011;11878;51.774;7.220;2022-09-21T05:33:33;6.90;;;3.83;;
23410;SDS011;11878;51.774;7.220;2022-09-21T05:39:41;14.40;;;2.20;;
23410;SDS011;11878;51.774;7.220;2022-09-21T05:42:43;12.17;;;2.27;;
23410;SDS011;11878;51.774;7.220;2022-09-21T05:45:46;6.87;;;2.30;;
23410;SDS011;11878;51.774;7.220;2022-09-21T05:48:54;8.07;;;2.40;;
23410;SDS011;11878;51.774;7.220;2022-09-21T05:52:21;4.43;;;1.93;;
23410;SDS011;11878;51.774;7.220;2022-09-21T05:55:40;5.90;;;2.57;;
23410;SDS011;11878;51.774;7.220;2022-09-21T06:06:01;2.87;;;1.40;;
23410;SDS011;11878;51.774;7.220;2022-09-21T06:09:02;2.33;;;1.80;;
23410;SDS011;11878;51.774;7.220;2022-09-21T06:12:04;2.53;;;1.30;;
23410;SDS011;11878;51.774;7.220;2022-09-21T06:15:07;1.47;;;1.30;;
23410;SDS011;11878;51.774;7.220;2022-09-21T06:18:14;4.97;;;1.53;;
23410;SDS011;11878;51.774;7.220;2022-09-21T06:21:18;2.50;;;1.63;;
23410;SDS011;11878;51.774;7.220;2022-09-21T06:24:20;2.20;;;1.40;;
23410;SDS011;11878;51.774;7.220;2022-09-21T06:27:24;2.93;;;1.77;;
23410;SDS011;11878;51.774;7.220;2022-09-21T06:30:28;2.97;;;1.43;;
23410;SDS011;11878;51.774;7.220;2022-09-21T06:33:30;2.23;;;1.40;;
23410;SDS011;11878;51.774;7.220;2022-09-21T06:36:32;4.70;;;2.23;;
23410;SDS011;11878;51.774;7.220;2022-09-21T06:39:33;4.90;;;1.70;;
23410;SDS011;11878;51.774;7.220;2022-09-21T06:42:35;2.53;;;1.10;;
23410;SDS011;11878;51.774;7.220;2022-09-21T06:45:37;2.50;;;1.37;;
23410;SDS011;11878;51.774;7.220;2022-09-21T06:48:39;1.87;;;1.30;;
23410;SDS011;11878;51.774;7.220;2022-09-21T06:51:40;8.57;;;1.80;;
23410;SDS011;11878;51.774;7.220;2022-09-21T06:54:43;2.20;;;1.77;;
23410;SDS011;11878;51.774;7.220;2022-09-21T06:57:45;1.93;;;1.37;;
23410;SDS011;11878;51.774;7.220;2022-09-21T07:00:46;2.53;;;1.67;;
23410;SDS011;11878;51.774;7.220;2022-09-21T07:03:49;2.70;;;1.50;;
23410;SDS011;11878;51.774;7.220;2022-09-21T07:06:51;3.30;;;1.57;;
23410;SDS011;11878;51.774;7.220;2022-09-21T07:09:53;1.87;;;1.33;;
23410;SDS011;11878;51.774;7.220;2022-09-21T07:13:15;2.03;;;1.60;;
23410;SDS011;11878;51.774;7.220;2022-09-21T07:16:17;3.43;;;2.07;;
23410;SDS011;11878;51.774;7.220;2022-09-21T07:19:19;3.17;;;2.03;;
23410;SDS011;11878;51.774;7.220;2022-09-21T07:22:21;4.10;;;2.80;;
23410;SDS011;11878;51.774;7.220;2022-09-21T07:25:23;4.80;;;2.53;;
23410;SDS011;11878;51.774;7.220;2022-09-21T07:28:24;4.73;;;2.37;;
23410;SDS011;11878;51.774;7.220;2022-09-21T07:31:26;3.53;;;2.07;;
23410;SDS011;11878;51.774;7.220;2022-09-21T07:34:28;9.20;;;4.27;;
23410;SDS011;11878;51.774;7.220;2022-09-21T07:37:30;4.60;;;3.03;;
23410;SDS011;11878;51.774;7.220;2022-09-21T07:40:32;4.73;;;3.23;;
23410;SDS011;11878;51.774;7.220;2022-09-21T07:43:35;6.53;;;3.40;;
23410;SDS011;11878;51.774;7.220;2022-09-21T07:46:39;5.60;;;3.43;;
23410;SDS011;11878;51.774;7.220;2022-09-21T07:49:48;6.57;;;2.90;;
23410;SDS011;11878;51.774;7.220;2022-09-21T07:52:49;6.17;;;3.03;;
23410;SDS011;11878;51.774;7.220;2022-09-21T07:55:51;7.13;;;3.00;;
23410;SDS011;11878;51.774;7.220;2022-09-21T07:58:53;8.90;;;3.30;;
23410;SDS011;11878;51.774;7.220;2022-09-21T08:02:06;6.53;;;3.30;;
23410;SDS011;11878;51.774;7.220;2022-09-21T08:05:08;6.60;;;3.97;;
23410;SDS011;11878;51.774;7.220;2022-09-21T08:08:10;6.10;;;3.70;;
23410;SDS011;11878;51.774;7.220;2022-09-21T08:11:13;6.00;;;3.30;;
23410;SDS011;11878;51.774;7.220;2022-09-21T08:14:16;7.40;;;4.20;;
23410;SDS011;11878;51.774;7.220;2022-09-21T08:17:26;15.03;;;5.87;;
23410;SDS011;11878;51.774;7.220;2022-09-21T08:20:28;9.67;;;4.73;;
23410;SDS011;11878;51.774;7.220;2022-09-21T08:23:30;13.43;;;6.43;;
23410;SDS011;11878;51.774;7.220;2022-09-21T08:26:31;9.83;;;5.33;;
23410;SDS011;11878;51.774;7.220;2022-09-21T08:29:33;11.03;;;6.03;;
23410;SDS011;11878;51.774;7.220;2022-09-21T08:32:36;13.03;;;5.67;;
23410;SDS011;11878;51.774;7.220;2022-09-21T08:35:55;11.93;;;5.83;;
23410;SDS011;11878;51.774;7.220;2022-09-21T08:38:58;13.53;;;6.07;;
23410;SDS011;11878;51.774;7.220;2022-09-21T08:42:07;12.13;;;5.67;;
23410;SDS011;11878;51.774;7.220;2022-09-21T08:45:14;12.73;;;5.77;;
23410;SDS011;11878;51.774;7.220;2022-09-21T08:51:31;16.37;;;6.70;;
23410;SDS011;11878;51.774;7.220;2022-09-21T08:57:55;13.10;;;5.83;;
23410;SDS011;11878;51.774;7.220;2022-09-21T09:04:25;12.70;;;5.57;;
23410;SDS011;11878;51.774;7.220;2022-09-21T09:11:03;8.63;;;3.47;;
23410;SDS011;11878;51.774;7.220;2022-09-21T09:17:36;2.90;;;0.70;;
23410;SDS011;11878;51.774;7.220;2022-09-21T09:20:54;2.73;;;1.53;;
23410;SDS011;11878;51.774;7.220;2022-09-21T09:27:41;10.90;;;1.83;;
23410;SDS011;11878;51.774;7.220;2022-09-21T09:30:44;9.57;;;1.90;;
23410;SDS011;11878;51.774;7.220;2022-09-21T09:37:12;7.27;;;1.43;;
23410;SDS011;11878;51.774;7.220;2022-09-21T09:40:16;8.73;;;1.90;;
23410;SDS011;11878;51.774;7.220;2022-09-21T09:43:43;7.33;;;1.23;;
23410;SDS011;11878;51.774;7.220;2022-09-21T09:46:52;7.40;;;1.70;;
23410;SDS011;11878;51.774;7.220;2022-09-21T09:50:07;5.10;;;1.50;;
23410;SDS011;11878;51.774;7.220;2022-09-21T09:53:23;4.27;;;1.40;;
23410;SDS011;11878;51.774;7.220;2022-09-21T09:56:26;7.10;;;1.70;;
23410;SDS011;11878;51.774;7.220;2022-09-21T09:59:36;6.27;;;1.07;;
23410;SDS011;11878;51.774;7.220;2022-09-21T10:02:53;4.97;;;0.90;;
23410;SDS011;11878;51.774;7.220;2022-09-21T10:05:56;1.73;;;0.80;;
23410;SDS011;11878;51.774;7.220;2022-09-21T10:08:58;3.83;;;0.70;;
23410;SDS011;11878;51.774;7.220;2022-09-21T10:12:00;6.37;;;1.30;;
23410;SDS011;11878;51.774;7.220;2022-09-21T10:15:23;3.67;;;1.10;;
23410;SDS011;11878;51.774;7.220;2022-09-21T10:21:46;3.03;;;1.30;;
23410;SDS011;11878;51.774;7.220;2022-09-21T10:24:52;3.40;;;0.70;;
23410;SDS011;11878;51.774;7.220;2022-09-21T10:27:55;3.60;;;0.93;;
23410;SDS011;11878;51.774;7.220;2022-09-21T10:31:07;3.33;;;0.77;;
23410;SDS011;11878;51.774;7.220;2022-09-21T10:34:24;1.20;;;0.40;;
23410;SDS011;11878;51.774;7.220;2022-09-21T10:37:29;2.28;;;0.80;;
23410;SDS011;11878;51.774;7.220;2022-09-21T10:40:35;4.57;;;0.90;;
23410;SDS011;11878;51.774;7.220;2022-09-21T10:43:39;2.47;;;0.47;;
23410;SDS011;11878;51.774;7.220;2022-09-21T10:46:46;5.13;;;0.63;;
23410;SDS011;11878;51.774;7.220;2022-09-21T10:49:50;2.40;;;0.60;;
23410;SDS011;11878;51.774;7.220;2022-09-21T10:53:00;3.33;;;0.63;;
23410;SDS011;11878;51.774;7.220;2022-09-21T11:05:36;1.75;;;0.50;;
23410;SDS011;11878;51.774;7.220;2022-09-21T11:08:44;3.00;;;0.60;;
23410;SDS011;11878;51.774;7.220;2022-09-21T11:11:57;5.13;;;0.53;;
23410;SDS011;11878;51.774;7.220;2022-09-21T11:15:22;4.63;;;0.67;;
23410;SDS011;11878;51.774;7.220;2022-09-21T11:26:03;1.73;;;0.33;;
23410;SDS011;11878;51.774;7.220;2022-09-21T11:29:19;2.73;;;0.60;;
23410;SDS011;11878;51.774;7.220;2022-09-21T11:43:23;2.30;;;0.60;;
23410;SDS011;11878;51.774;7.220;2022-09-21T11:50:04;3.20;;;0.80;;
23410;SDS011;11878;51.774;7.220;2022-09-21T11:57:15;1.70;;;0.30;;
23410;SDS011;11878;51.774;7.220;2022-09-21T12:00:20;3.40;;;0.50;;
23410;SDS011;11878;51.774;7.220;2022-09-21T12:09:53;2.37;;;0.70;;
23410;SDS011;11878;51.774;7.220;2022-09-21T12:16:50;3.27;;;0.40;;
23410;SDS011;11878;51.774;7.220;2022-09-21T12:23:07;2.00;;;0.50;;
23410;SDS011;11878;51.774;7.220;2022-09-21T12:26:17;2.03;;;0.63;;
23410;SDS011;11878;51.774;7.220;2022-09-21T12:29:24;2.23;;;0.40;;
23410;SDS011;11878;51.774;7.220;2022-09-21T12:36:02;1.73;;;0.40;;
23410;SDS011;11878;51.774;7.220;2022-09-21T12:39:17;4.97;;;0.53;;
23410;SDS011;11878;51.774;7.220;2022-09-21T12:42:29;1.00;;;0.50;;
23410;SDS011;11878;51.774;7.220;2022-09-21T12:45:45;3.23;;;0.40;;
23410;SDS011;11878;51.774;7.220;2022-09-21T12:48:51;3.80;;;0.60;;
23410;SDS011;11878;51.774;7.220;2022-09-21T12:51:55;2.60;;;0.63;;
23410;SDS011;11878;51.774;7.220;2022-09-21T12:55:18;6.10;;;0.60;;
23410;SDS011;11878;51.774;7.220;2022-09-21T13:02:08;2.40;;;1.37;;
23410;SDS011;11878;51.774;7.220;2022-09-21T13:05:29;2.53;;;0.30;;
23410;SDS011;11878;51.774;7.220;2022-09-21T13:08:43;5.13;;;0.80;;
23410;SDS011;11878;51.774;7.220;2022-09-21T13:11:52;1.50;;;0.50;;
23410;SDS011;11878;51.774;7.220;2022-09-21T13:15:11;0.73;;;0.43;;
23410;SDS011;11878;51.774;7.220;2022-09-21T13:18:26;4.53;;;0.50;;
23410;SDS011;11878;51.774;7.220;2022-09-21T13:21:36;3.07;;;0.63;;
23410;SDS011;11878;51.774;7.220;2022-09-21T13:24:38;0.67;;;0.40;;
23410;SDS011;11878;51.774;7.220;2022-09-21T13:35:42;1.43;;;0.83;;
23410;SDS011;11878;51.774;7.220;2022-09-21T13:41:41;3.13;;;0.60;;
23410;SDS011;11878;51.774;7.220;2022-09-21T13:48:20;1.00;;;0.70;;
23410;SDS011;11878;51.774;7.220;2022-09-21T13:51:25;3.20;;;0.70;;
23410;SDS011;11878;51.774;7.220;2022-09-21T13:57:38;2.77;;;0.70;;
23410;SDS011;11878;51.774;7.220;2022-09-21T14:03:57;2.70;;;0.53;;
23410;SDS011;11878;51.774;7.220;2022-09-21T14:07:03;1.90;;;0.40;;
23410;SDS011;11878;51.774;7.220;2022-09-21T14:10:07;1.60;;;0.77;;
23410;SDS011;11878;51.774;7.220;2022-09-21T14:13:21;5.03;;;0.80;;
23410;SDS011;11878;51.774;7.220;2022-09-21T14:22:43;5.57;;;1.00;;
23410;SDS011;11878;51.774;7.220;2022-09-21T14:25:46;1.50;;;0.50;;
23410;SDS011;11878;51.774;7.220;2022-09-21T14:28:53;2.07;;;0.60;;
23410;SDS011;11878;51.774;7.220;2022-09-21T14:31:56;3.90;;;0.60;;
23410;SDS011;11878;51.774;7.220;2022-09-21T14:35:05;2.47;;;0.83;;
23410;SDS011;11878;51.774;7.220;2022-09-21T14:38:24;3.07;;;0.63;;
23410;SDS011;11878;51.774;7.220;2022-09-21T14:41:37;2.40;;;0.53;;
23410;SDS011;11878;51.774;7.220;2022-09-21T14:44:42;2.03;;;0.70;;
23410;SDS011;11878;51.774;7.220;2022-09-21T14:47:53;3.47;;;0.57;;
23410;SDS011;11878;51.774;7.220;2022-09-21T14:51:18;1.40;;;0.67;;
23410;SDS011;11878;51.774;7.220;2022-09-21T14:54:47;2.07;;;0.60;;
23410;SDS011;11878;51.774;7.220;2022-09-21T15:11:38;1.77;;;0.50;;
23410;SDS011;11878;51.774;7.220;2022-09-21T15:14:55;1.07;;;0.40;;
23410;SDS011;11878;51.774;7.220;2022-09-21T15:18:13;1.33;;;0.60;;
23410;SDS011;11878;51.774;7.220;2022-09-21T15:21:22;2.43;;;0.60;;
23410;SDS011;11878;51.774;7.220;2022-09-21T15:27:31;1.43;;;0.60;;
23410;SDS011;11878;51.774;7.220;2022-09-21T15:30:39;2.77;;;0.60;;
23410;SDS011;11878;51.774;7.220;2022-09-21T15:33:46;3.47;;;0.60;;
23410;SDS011;11878;51.774;7.220;2022-09-21T15:36:49;6.87;;;0.70;;
23410;SDS011;11878;51.774;7.220;2022-09-21T15:40:03;1.80;;;0.30;;
23410;SDS011;11878;51.774;7.220;2022-09-21T15:46:14;3.43;;;0.70;;
23410;SDS011;11878;51.774;7.220;2022-09-21T15:49:18;2.60;;;0.70;;
23410;SDS011;11878;51.774;7.220;2022-09-21T15:55:25;2.13;;;0.50;;
23410;SDS011;11878;51.774;7.220;2022-09-21T15:58:31;2.67;;;0.60;;
23410;SDS011;11878;51.774;7.220;2022-09-21T16:01:39;2.03;;;0.70;;
23410;SDS011;11878;51.774;7.220;2022-09-21T16:04:46;2.20;;;0.50;;
23410;SDS011;11878;51.774;7.220;2022-09-21T16:07:50;1.37;;;0.40;;
23410;SDS011;11878;51.774;7.220;2022-09-21T16:14:38;3.53;;;0.63;;
23410;SDS011;11878;51.774;7.220;2022-09-21T16:17:58;1.50;;;0.40;;
23410;SDS011;11878;51.774;7.220;2022-09-21T16:21:11;6.03;;;0.70;;
23410;SDS011;11878;51.774;7.220;2022-09-21T16:24:27;1.43;;;0.57;;
23410;SDS011;11878;51.774;7.220;2022-09-21T16:27:30;1.70;;;0.50;;
23410;SDS011;11878;51.774;7.220;2022-09-21T16:30:40;1.63;;;0.60;;
23410;SDS011;11878;51.774;7.220;2022-09-21T16:36:50;4.23;;;0.60;;
23410;SDS011;11878;51.774;7.220;2022-09-21T16:39:55;1.17;;;0.50;;
23410;SDS011;11878;51.774;7.220;2022-09-21T16:42:58;2.70;;;0.73;;
23410;SDS011;11878;51.774;7.220;2022-09-21T16:46:01;4.07;;;0.60;;
23410;SDS011;11878;51.774;7.220;2022-09-21T16:49:03;2.80;;;0.60;;
23410;SDS011;11878;51.774;7.220;2022-09-21T16:52:05;2.83;;;0.60;;
23410;SDS011;11878;51.774;7.220;2022-09-21T16:55:08;1.87;;;0.60;;
23410;SDS011;11878;51.774;7.220;2022-09-21T16:58:10;4.67;;;0.90;;
23410;SDS011;11878;51.774;7.220;2022-09-21T17:01:14;4.53;;;0.73;;
23410;SDS011;11878;51.774;7.220;2022-09-21T17:04:21;4.23;;;1.33;;
23410;SDS011;11878;51.774;7.220;2022-09-21T17:07:25;3.13;;;1.30;;
23410;SDS011;11878;51.774;7.220;2022-09-21T17:10:30;5.03;;;0.93;;
23410;SDS011;11878;51.774;7.220;2022-09-21T17:13:36;3.07;;;0.97;;
23410;SDS011;11878;51.774;7.220;2022-09-21T17:16:38;2.93;;;1.17;;
23410;SDS011;11878;51.774;7.220;2022-09-21T17:19:40;2.70;;;1.23;;
23410;SDS011;11878;51.774;7.220;2022-09-21T17:22:42;3.87;;;1.40;;
23410;SDS011;11878;51.774;7.220;2022-09-21T17:25:44;4.53;;;1.70;;
23410;SDS011;11878;51.774;7.220;2022-09-21T17:28:45;6.10;;;1.33;;
23410;SDS011;11878;51.774;7.220;2022-09-21T17:31:48;3.53;;;1.37;;
23410;SDS011;11878;51.774;7.220;2022-09-21T17:38:35;6.30;;;2.33;;
23410;SDS011;11878;51.774;7.220;2022-09-21T17:41:40;9.67;;;2.90;;
23410;SDS011;11878;51.774;7.220;2022-09-21T17:48:39;5.70;;;2.57;;
23410;SDS011;11878;51.774;7.220;2022-09-21T17:51:41;8.87;;;3.43;;
23410;SDS011;11878;51.774;7.220;2022-09-21T17:55:02;5.20;;;2.57;;
23410;SDS011;11878;51.774;7.220;2022-09-21T18:01:35;64.17;;;26.93;;
23410;SDS011;11878;51.774;7.220;2022-09-21T18:04:40;51.60;;;23.30;;
23410;SDS011;11878;51.774;7.220;2022-09-21T18:07:41;54.37;;;25.93;;
23410;SDS011;11878;51.774;7.220;2022-09-21T18:10:46;34.70;;;17.83;;
23410;SDS011;11878;51.774;7.220;2022-09-21T18:14:02;27.60;;;13.40;;
23410;SDS011;11878;51.774;7.220;2022-09-21T18:23:41;16.10;;;7.20;;
23410;SDS011;11878;51.774;7.220;2022-09-21T18:26:51;21.07;;;9.87;;
23410;SDS011;11878;51.774;7.220;2022-09-21T18:29:53;44.43;;;19.60;;
23410;SDS011;11878;51.774;7.220;2022-09-21T18:33:08;24.17;;;12.40;;
23410;SDS011;11878;51.774;7.220;2022-09-21T18:36:31;23.47;;;12.30;;
23410;SDS011;11878;51.774;7.220;2022-09-21T18:49:53;15.47;;;8.30;;
23410;SDS011;11878;51.774;7.220;2022-09-21T18:53:01;10.77;;;6.07;;
23410;SDS011;11878;51.774;7.220;2022-09-21T18:56:12;9.53;;;3.90;;
23410;SDS011;11878;51.774;7.220;2022-09-21T18:59:15;4.77;;;3.43;;
23410;SDS011;11878;51.774;7.220;2022-09-21T19:02:17;4.50;;;2.33;;
23410;SDS011;11878;51.774;7.220;2022-09-21T19:05:20;4.83;;;1.90;;
23410;SDS011;11878;51.774;7.220;2022-09-21T19:08:37;4.77;;;1.47;;
23410;SDS011;11878;51.774;7.220;2022-09-21T19:15:21;3.40;;;1.53;;
23410;SDS011;11878;51.774;7.220;2022-09-21T19:22:35;11.17;;;6.10;;
23410;SDS011;11878;51.774;7.220;2022-09-21T19:25:50;12.23;;;8.30;;
23410;SDS011;11878;51.774;7.220;2022-09-21T19:35:39;7.77;;;5.30;;
23410;SDS011;11878;51.774;7.220;2022-09-21T19:38:42;8.00;;;3.77;;
23410;SDS011;11878;51.774;7.220;2022-09-21T19:44:58;35.03;;;18.03;;
23410;SDS011;11878;51.774;7.220;2022-09-21T19:48:13;18.13;;;9.67;;
23410;SDS011;11878;51.774;7.220;2022-09-21T19:51:40;14.97;;;8.10;;
23410;SDS011;11878;51.774;7.220;2022-09-21T19:54:45;13.10;;;7.33;;
23410;SDS011;11878;51.774;7.220;2022-09-21T19:58:06;13.27;;;6.40;;
23410;SDS011;11878;51.774;7.220;2022-09-21T20:01:27;7.87;;;3.87;;
23410;SDS011;11878;51.774;7.220;2022-09-21T20:07:58;9.23;;;3.40;;
23410;SDS011;11878;51.774;7.220;2022-09-21T20:11:35;8.90;;;3.50;;
23410;SDS011;11878;51.774;7.220;2022-09-21T20:14:52;5.93;;;3.57;;
23410;SDS011;11878;51.774;7.220;2022-09-21T20:18:24;8.67;;;3.73;;
23410;SDS011;11878;51.774;7.220;2022-09-21T20:21:37;7.57;;;3.93;;
23410;SDS011;11878;51.774;7.220;2022-09-21T20:28:17;8.40;;;3.50;;
23410;SDS011;11878;51.774;7.220;2022-09-21T20:31:21;6.53;;;3.73;;
23410;SDS011;11878;51.774;7.220;2022-09-21T20:34:25;6.10;;;3.40;;
23410;SDS011;11878;51.774;7.220;2022-09-21T20:37:26;5.63;;;3.37;;
23410;SDS011;11878;51.774;7.220;2022-09-21T20:40:30;4.87;;;2.90;;
23410;SDS011;11878;51.774;7.220;2022-09-21T20:43:32;6.30;;;2.83;;
23410;SDS011;11878;51.774;7.220;2022-09-21T20:46:35;5.17;;;2.37;;
23410;SDS011;11878;51.774;7.220;2022-09-21T20:49:37;3.60;;;2.73;;
23410;SDS011;11878;51.774;7.220;2022-09-21T20:52:39;5.63;;;2.60;;
23410;SDS011;11878;51.774;7.220;2022-09-21T20:55:42;4.93;;;2.30;;
23410;SDS011;11878;51.774;7.220;2022-09-21T20:58:53;6.27;;;2.33;;
23410;SDS011;11878;51.774;7.220;2022-09-21T21:01:55;3.83;;;2.03;;
23410;SDS011;11878;51.774;7.220;2022-09-21T21:04:56;4.80;;;2.07;;
23410;SDS011;11878;51.774;7.220;2022-09-21T21:07:58;5.57;;;2.70;;
23410;SDS011;11878;51.774;7.220;2022-09-21T21:11:00;9.30;;;2.87;;
23410;SDS011;11878;51.774;7.220;2022-09-21T21:14:02;5.07;;;2.97;;
23410;SDS011;11878;51.774;7.220;2022-09-21T21:17:04;5.80;;;2.90;;
23410;SDS011;11878;51.774;7.220;2022-09-21T21:20:07;5.37;;;3.03;;
23410;SDS011;11878;51.774;7.220;2022-09-21T21:23:09;5.93;;;3.13;;
23410;SDS011;11878;51.774;7.220;2022-09-21T21:26:11;4.40;;;3.37;;
23410;SDS011;11878;51.774;7.220;2022-09-21T21:29:13;4.00;;;2.33;;
23410;SDS011;11878;51.774;7.220;2022-09-21T21:32:15;5.57;;;2.20;;
23410;SDS011;11878;51.774;7.220;2022-09-21T21:35:18;5.30;;;2.73;;
23410;SDS011;11878;51.774;7.220;2022-09-21T21:38:20;6.53;;;2.17;;
23410;SDS011;11878;51.774;7.220;2022-09-21T21:41:22;4.80;;;2.17;;
23410;SDS011;11878;51.774;7.220;2022-09-21T21:44:23;3.30;;;2.33;;
23410;SDS011;11878;51.774;7.220;2022-09-21T21:47:25;3.83;;;2.30;;
23410;SDS011;11878;51.774;7.220;2022-09-21T21:50:40;2.50;;;2.00;;
23410;SDS011;11878;51.774;7.220;2022-09-21T21:53:42;4.93;;;2.27;;
23410;SDS011;11878;51.774;7.220;2022-09-21T21:56:44;4.27;;;2.30;;
23410;SDS011;11878;51.774;7.220;2022-09-21T21:59:46;7.13;;;2.00;;
23410;SDS011;11878;51.774;7.220;2022-09-21T22:02:48;7.27;;;2.40;;
23410;SDS011;11878;51.774;7.220;2022-09-21T22:05:53;4.73;;;2.40;;
23410;SDS011;11878;51.774;7.220;2022-09-21T22:08:56;7.20;;;2.50;;
23410;SDS011;11878;51.774;7.220;2022-09-21T22:11:58;2.67;;;1.97;;
23410;SDS011;11878;51.774;7.220;2022-09-21T22:15:02;4.93;;;2.10;;
23410;SDS011;11878;51.774;7.220;2022-09-21T22:18:03;3.00;;;1.53;;
23410;SDS011;11878;51.774;7.220;2022-09-21T22:21:06;5.63;;;2.40;;
23410;SDS011;11878;51.774;7.220;2022-09-21T22:24:11;3.17;;;1.77;;